Dzerzhinsk, Belarus
Current Conditions -  °F | °C
As of 8:00 AM on Sunday 26 Oct 2014 (Local Time) from UMMM Reporting Station
Clear Clear  
Wind Chill: 13°   Ceiling: Unl
Heat Index: 21°   Visibility: 4mi
Dew Point: 16°   Wind: 7mph
Humidity: 80%   Direction: 160°SSE
Pressure: 30.48"   Gusts: NA
Location:  53.69°N, 27.14°E
Report Text: UMMM 260600Z 16003MPS 6000 NSC M06/M09 Q1032 R12/CLRD60 NOSIGRMK QFE754
Loading
Personal Weather Stations






























Interactive Weather Map
Tropical Storm Tracking
New forecast layout! Learn more

10-Day Weather Forecast

Advertisements
Track Severe Weather on mobile